createdAt,value
2022-09-28T00:00:42.186Z,96934.34
2022-09-28T00:01:44.556Z,96935.69
2022-09-28T00:02:46.523Z,96925.63
2022-09-28T00:03:51.426Z,96922.41
2022-09-28T00:04:53.143Z,96921.63
2022-09-28T00:06:03.163Z,96923.78
2022-09-28T00:07:04.871Z,96917.38
2022-09-28T00:08:06.643Z,96923.66
2022-09-28T00:09:08.456Z,96927.13
2022-09-28T00:10:10.421Z,96918.63
2022-09-28T00:11:15.262Z,96918.41
2022-09-28T00:12:17.004Z,96908.31
2022-09-28T00:13:19.110Z,96905.69
2022-09-28T00:14:21.683Z,96910.97
2022-09-28T00:15:24.640Z,96905.69
2022-09-28T00:16:31.738Z,96911.53
2022-09-28T00:17:34.097Z,96900.41
2022-09-28T00:18:36.262Z,96900.41
2022-09-28T00:19:40.051Z,96895.94
2022-09-28T00:20:41.831Z,96892.97
2022-09-28T00:21:43.620Z,96896.66
2022-09-28T00:22:45.650Z,96901.13
2022-09-28T00:24:06.094Z,96889.78
2022-09-28T00:25:08.702Z,96885.19
2022-09-28T00:26:10.494Z,96883.38
2022-09-28T00:27:12.436Z,96882.13
2022-09-28T00:28:17.121Z,96877.63
2022-09-28T00:29:30.009Z,96874.19
2022-09-28T00:30:31.727Z,96871.78
2022-09-28T00:31:35.296Z,96869.72
2022-09-28T00:32:37.059Z,96862.59
2022-09-28T00:33:40.497Z,96862.06
2022-09-28T00:34:45.908Z,96858.38
2022-09-28T00:35:55.076Z,96852.06
2022-09-28T00:36:56.827Z,96859.97
2022-09-28T00:37:58.562Z,96845.75
2022-09-28T00:39:08.224Z,96843.66
2022-09-28T00:40:10.159Z,96851.34
2022-09-28T00:41:12.563Z,96852.38
2022-09-28T00:42:22.951Z,96849.75
2022-09-28T00:43:25.475Z,96854.78
2022-09-28T00:44:27.097Z,96853.72
2022-09-28T00:45:28.849Z,96849.50
2022-09-28T00:46:36.125Z,96851.66
2022-09-28T00:47:51.360Z,96852.22
2022-09-28T00:49:03.000Z,96848.78
2022-09-28T00:50:18.438Z,96853.81
2022-09-28T00:51:20.873Z,96845.91
2022-09-28T00:52:54.713Z,96842.00
2022-09-28T00:54:00.866Z,96847.81
2022-09-28T00:55:08.360Z,96852.31
2022-09-28T00:56:19.160Z,96835.44
2022-09-28T00:57:23.003Z,96839.91
2022-09-28T00:58:33.384Z,96832.22
2022-09-28T00:59:35.515Z,96830.63
2022-09-28T01:00:40.753Z,96821.13
2022-09-28T01:01:42.543Z,96821.38
2022-09-28T01:02:46.502Z,96832.72
2022-09-28T01:03:48.877Z,96818.97
2022-09-28T01:04:52.140Z,96810.81
2022-09-28T01:05:58.274Z,96816.91
2022-09-28T01:07:00.542Z,96807.69
2022-09-28T01:08:03.372Z,96805.06
2022-09-28T01:09:10.337Z,96815.38
2022-09-28T01:10:13.162Z,96812.97
2022-09-28T01:11:14.920Z,96806.66
2022-09-28T01:12:16.666Z,96797.94
2022-09-28T01:13:20.769Z,96790.03
2022-09-28T01:14:25.667Z,96795.31
2022-09-28T01:15:30.120Z,96781.31
2022-09-28T01:17:15.815Z,96788.75
2022-09-28T01:18:27.582Z,96793.47
2022-09-28T01:19:55.823Z,96776.03
2022-09-28T01:21:09.686Z,96785.78
2022-09-28T01:22:52.098Z,96784.75
2022-09-28T01:24:33.625Z,96777.63
2022-09-28T01:25:58.911Z,96781.06
2022-09-28T01:27:20.394Z,96776.84
2022-09-28T01:28:28.906Z,96771.25
2022-09-28T01:29:57.959Z,96771.50
2022-09-28T01:31:16.074Z,96765.72
2022-09-28T01:32:47.430Z,96762.03
2022-09-28T01:34:20.913Z,96753.63
2022-09-28T01:35:48.937Z,96761.56
2022-09-28T01:36:56.629Z,96763.63
2022-09-28T01:38:19.164Z,96750.69
2022-09-28T01:39:42.508Z,96751.75
2022-09-28T01:40:47.371Z,96748.53
2022-09-28T01:41:55.612Z,96752.19
2022-09-28T01:43:18.102Z,96748.53
2022-09-28T01:44:23.129Z,96750.38
2022-09-28T01:45:36.654Z,96733.28
2022-09-28T01:46:50.536Z,96739.34
2022-09-28T01:48:02.821Z,96725.59
2022-09-28T01:49:16.210Z,96731.91
2022-09-28T01:50:25.616Z,96731.91
2022-09-28T01:51:44.215Z,96719.19
2022-09-28T01:53:01.035Z,96722.06
2022-09-28T01:54:13.032Z,96722.56
2022-09-28T01:55:44.031Z,96722.25
2022-09-28T01:56:57.562Z,96710.88
2022-09-28T01:58:14.515Z,96706.66
2022-09-28T01:59:30.938Z,96708.72
2022-09-28T02:00:38.471Z,96708.97
2022-09-28T02:02:39.178Z,96707.94
2022-09-28T02:04:00.475Z,96703.16
2022-09-28T02:05:13.762Z,96696.53
2022-09-28T02:06:24.748Z,96696.53
2022-09-28T02:07:39.756Z,96696.53
2022-09-28T02:08:54.579Z,96691.00
2022-09-28T02:10:03.278Z,96682.84
2022-09-28T02:11:19.298Z,96675.75
2022-09-28T02:12:35.831Z,96677.34
2022-09-28T02:13:44.770Z,96667.81
2022-09-28T02:14:52.650Z,96671.50
2022-09-28T02:16:09.683Z,96671.75
2022-09-28T02:17:12.483Z,96670.16
2022-09-28T02:18:14.613Z,96673.59
2022-09-28T02:19:22.139Z,96670.38
2022-09-28T02:20:25.132Z,96671.41
2022-09-28T02:21:41.083Z,96662.47
2022-09-28T02:22:56.624Z,96665.09
2022-09-28T02:24:08.015Z,96659.81
2022-09-28T02:25:13.881Z,96660.66
2022-09-28T02:26:19.467Z,96652.75
2022-09-28T02:28:04.725Z,96654.34
2022-09-28T02:29:06.489Z,96652.16
2022-09-28T02:30:09.226Z,96657.44
2022-09-28T02:31:11.128Z,96654.25
2022-09-28T02:32:13.064Z,96655.84
2022-09-28T02:33:35.791Z,96653.53
2022-09-28T02:34:37.559Z,96648.25
2022-09-28T02:35:42.555Z,96646.19
2022-09-28T02:36:46.607Z,96652.56
2022-09-28T02:37:50.005Z,96655.19
2022-09-28T02:38:52.993Z,96651.03
2022-09-28T02:39:55.370Z,96648.16
2022-09-28T02:41:23.683Z,96649.81
2022-09-28T02:42:39.788Z,96649.56
2022-09-28T02:44:05.671Z,96637.50
2022-09-28T02:45:47.857Z,96638.84
2022-09-28T02:47:10.956Z,96647.31
2022-09-28T02:48:55.779Z,96652.09
2022-09-28T02:50:37.669Z,96669.59
2022-09-28T02:52:15.289Z,96675.19
2022-09-28T02:53:50.289Z,96667.84
2022-09-28T02:55:18.827Z,96668.94
2022-09-28T02:56:26.369Z,96675.00
2022-09-28T02:57:42.889Z,96661.56
2022-09-28T02:59:20.251Z,96665.28
2022-09-28T03:00:24.173Z,96659.47
2022-09-28T03:01:48.045Z,96657.38
2022-09-28T03:02:55.915Z,96663.25
2022-09-28T03:04:18.683Z,96664.56
2022-09-28T03:05:26.712Z,96674.88
2022-09-28T03:06:55.943Z,96677.56
2022-09-28T03:08:26.222Z,96677.09
2022-09-28T03:10:01.914Z,96671.56
2022-09-28T03:11:12.793Z,96676.31
2022-09-28T03:12:19.280Z,96674.47
2022-09-28T03:13:22.011Z,96675.25
2022-09-28T03:14:24.420Z,96674.47
2022-09-28T03:15:29.839Z,96673.41
2022-09-28T03:16:32.345Z,96683.72
2022-09-28T03:17:34.135Z,96679.25
2022-09-28T03:18:36.031Z,96672.38
2022-09-28T03:19:38.105Z,96679.78
2022-09-28T03:20:39.883Z,96674.03
2022-09-28T03:21:41.934Z,96670.56
2022-09-28T03:22:52.036Z,96673.47
2022-09-28T03:24:06.230Z,96679.06
2022-09-28T03:25:08.720Z,96674.59
2022-09-28T03:26:14.621Z,96668.56
2022-09-28T03:27:16.404Z,96665.91
2022-09-28T03:28:18.161Z,96673.84
2022-09-28T03:29:20.524Z,96678.88
2022-09-28T03:30:22.428Z,96676.22
2022-09-28T03:31:24.498Z,96673.91
2022-09-28T03:32:26.292Z,96682.63
2022-09-28T03:33:28.053Z,96681.59
2022-09-28T03:34:29.747Z,96685.03
2022-09-28T03:35:31.616Z,96682.13
2022-09-28T03:36:33.353Z,96680.28
2022-09-28T03:37:35.899Z,96683.72
2022-09-28T03:38:38.502Z,96680.53
2022-09-28T03:39:40.261Z,96682.13
2022-09-28T03:40:41.989Z,96678.69
2022-09-28T03:41:43.732Z,96682.13
2022-09-28T03:42:46.662Z,96681.06
2022-09-28T03:43:48.533Z,96674.19
2022-09-28T03:44:50.343Z,96675.53
2022-09-28T03:46:00.572Z,96668.66
2022-09-28T03:47:02.328Z,96662.34
2022-09-28T03:48:04.249Z,96664.19
2022-09-28T03:49:06.017Z,96661.28
2022-09-28T03:50:08.337Z,96671.31
2022-09-28T03:51:11.503Z,96665.78
2022-09-28T03:52:14.809Z,96663.94
2022-09-28T03:53:16.537Z,96674.50
2022-09-28T03:54:19.003Z,96666.31
2022-09-28T03:55:20.731Z,96665.53
2022-09-28T03:56:22.513Z,96659.19
2022-09-28T03:57:24.274Z,96667.91
2022-09-28T03:58:28.542Z,96666.09
2022-09-28T03:59:30.734Z,96667.91
2022-09-28T04:00:32.802Z,96667.91
2022-09-28T04:01:34.703Z,96672.41
2022-09-28T04:02:36.621Z,96677.47
2022-09-28T04:03:38.645Z,96672.97
2022-09-28T04:04:40.360Z,96681.69
2022-09-28T04:05:53.455Z,96676.97
2022-09-28T04:06:55.249Z,96675.38
2022-09-28T04:07:57.768Z,96669.28
2022-09-28T04:08:59.720Z,96668.50
2022-09-28T04:10:01.430Z,96662.41
2022-09-28T04:11:03.321Z,96667.13
2022-09-28T04:12:05.921Z,96673.78
2022-09-28T04:13:07.633Z,96668.50
2022-09-28T04:14:09.504Z,96673.19
2022-09-28T04:15:11.246Z,96673.19
2022-09-28T04:16:13.095Z,96669.53
2022-09-28T04:17:14.851Z,96665.06
2022-09-28T04:18:16.582Z,96669.53
2022-09-28T04:19:18.659Z,96677.69
2022-09-28T04:20:20.506Z,96675.84
2022-09-28T04:21:22.242Z,96673.19
2022-09-28T04:22:24.200Z,96674.81
2022-09-28T04:23:28.047Z,96670.56
2022-09-28T04:24:29.753Z,96664.47
2022-09-28T04:25:31.476Z,96676.41
2022-09-28T04:26:33.205Z,96662.63
2022-09-28T04:27:53.614Z,96662.63
2022-09-28T04:29:13.908Z,96661.84
2022-09-28T04:30:15.742Z,96667.13
2022-09-28T04:31:22.203Z,96668.97
2022-09-28T04:32:24.119Z,96673.44
2022-09-28T04:33:25.834Z,96671.84
2022-09-28T04:34:31.913Z,96670.25
2022-09-28T04:35:36.961Z,96677.13
2022-09-28T04:36:38.725Z,96670.81
2022-09-28T04:37:40.806Z,96668.16
2022-09-28T04:38:52.746Z,96665.53
2022-09-28T04:39:55.116Z,96666.31
2022-09-28T04:40:56.904Z,96668.16
2022-09-28T04:41:58.658Z,96673.19
2022-09-28T04:43:00.391Z,96666.31
2022-09-28T04:44:02.465Z,96665.28
2022-09-28T04:45:04.783Z,96663.69
2022-09-28T04:46:06.771Z,96670.00
2022-09-28T04:47:08.559Z,96662.09
2022-09-28T04:48:10.272Z,96663.13
2022-09-28T04:49:12.075Z,96663.13
2022-09-28T04:50:14.017Z,96669.22
2022-09-28T04:51:15.743Z,96664.97
2022-09-28T04:52:18.689Z,96663.13
2022-09-28T04:53:21.033Z,96662.88
2022-09-28T04:54:22.759Z,96665.78
2022-09-28T04:55:24.589Z,96667.63
2022-09-28T04:56:26.372Z,96666.81
2022-09-28T04:57:28.129Z,96662.09
2022-09-28T04:58:30.795Z,96662.34
2022-09-28T04:59:33.380Z,96659.44
2022-09-28T05:00:35.136Z,96663.94
2022-09-28T05:01:36.914Z,96669.22
2022-09-28T05:02:39.136Z,96671.59
2022-09-28T05:03:41.945Z,96670.56
2022-09-28T05:04:43.707Z,96672.66
2022-09-28T05:05:47.113Z,96667.63
2022-09-28T05:06:49.171Z,96676.88
2022-09-28T05:07:50.877Z,96667.13
2022-09-28T05:08:53.837Z,96670.56
2022-09-28T05:09:55.839Z,96666.91
2022-09-28T05:11:07.644Z,96666.66
2022-09-28T05:12:09.743Z,96664.25
2022-09-28T05:13:13.896Z,96676.41
2022-09-28T05:14:16.319Z,96678.47
2022-09-28T05:15:18.060Z,96679.31
2022-09-28T05:16:20.401Z,96680.91
2022-09-28T05:17:23.088Z,96686.97
2022-09-28T05:18:25.580Z,96687.78
2022-09-28T05:19:27.436Z,96683.28
2022-09-28T05:20:29.568Z,96687.78
2022-09-28T05:21:31.336Z,96687.78
2022-09-28T05:22:33.625Z,96686.97
2022-09-28T05:23:35.429Z,96693.06
2022-09-28T05:24:37.203Z,96682.50
2022-09-28T05:25:40.078Z,96688.31
2022-09-28T05:26:41.859Z,96682.25
2022-09-28T05:27:43.658Z,96684.34
2022-09-28T05:28:46.059Z,96692.00
2022-09-28T05:29:47.833Z,96685.13
2022-09-28T05:30:49.740Z,96690.16
2022-09-28T05:31:51.513Z,96690.41
2022-09-28T05:32:53.862Z,96687.53
2022-09-28T05:33:55.710Z,96687.78
2022-09-28T05:34:57.472Z,96682.50
2022-09-28T05:36:01.607Z,96688.56
2022-09-28T05:37:03.707Z,96693.06
2022-09-28T05:38:05.708Z,96692.81
2022-09-28T05:39:07.645Z,96690.97
2022-09-28T05:40:10.440Z,96683.53
2022-09-28T05:41:12.613Z,96689.63
2022-09-28T05:42:14.361Z,96691.75
2022-09-28T05:43:16.210Z,96687.28
2022-09-28T05:44:18.031Z,96688.31
2022-09-28T05:45:19.870Z,96677.50
2022-09-28T05:46:23.599Z,96677.50
2022-09-28T05:47:26.958Z,96684.63
2022-09-28T05:48:28.733Z,96684.63
2022-09-28T05:49:32.036Z,96680.94
2022-09-28T05:50:34.028Z,96674.84
2022-09-28T05:51:35.796Z,96676.44
2022-09-28T05:52:38.764Z,96674.84
2022-09-28T05:53:40.574Z,96679.09
2022-09-28T05:54:42.332Z,96682.78
2022-09-28T05:55:44.167Z,96679.34
2022-09-28T05:56:45.916Z,96681.19
2022-09-28T05:57:47.646Z,96688.88
2022-09-28T05:58:49.433Z,96692.56
2022-09-28T05:59:51.149Z,96694.94
2022-09-28T06:00:57.127Z,96694.16
2022-09-28T06:01:58.947Z,96692.56
2022-09-28T06:03:21.413Z,96702.66
2022-09-28T06:04:23.144Z,96702.31
2022-09-28T06:05:25.493Z,96703.63
2022-09-28T06:06:27.220Z,96702.81
2022-09-28T06:07:28.970Z,96702.56
2022-09-28T06:08:34.161Z,96699.94
2022-09-28T06:09:35.875Z,96698.88
2022-09-28T06:10:38.311Z,96707.59
2022-09-28T06:11:40.072Z,96703.63
2022-09-28T06:12:42.145Z,96708.66
2022-09-28T06:13:43.868Z,96715.53
2022-09-28T06:14:46.574Z,96717.38
2022-09-28T06:15:48.282Z,96718.72
2022-09-28T06:16:50.148Z,96713.69
2022-09-28T06:18:14.844Z,96711.94
2022-09-28T06:19:16.595Z,96722.41
2022-09-28T06:20:18.328Z,96728.75
2022-09-28T06:21:20.147Z,96721.34
2022-09-28T06:22:21.854Z,96720.81
2022-09-28T06:23:23.840Z,96722.66
2022-09-28T06:24:25.563Z,96724.25
2022-09-28T06:25:29.917Z,96731.94
2022-09-28T06:26:31.725Z,96725.84
2022-09-28T06:27:34.399Z,96720.56
2022-09-28T06:28:36.375Z,96722.41
2022-09-28T06:29:38.095Z,96730.34
2022-09-28T06:30:41.918Z,96717.38
2022-09-28T06:31:43.766Z,96726.63
2022-09-28T06:32:45.476Z,96722.16
2022-09-28T06:33:52.326Z,96731.94
2022-09-28T06:34:56.325Z,96725.03
2022-09-28T06:36:00.034Z,96731.69
2022-09-28T06:37:04.545Z,96727.69
2022-09-28T06:38:06.930Z,96734.56
2022-09-28T06:39:08.767Z,96732.19
2022-09-28T06:40:10.722Z,96729.53
2022-09-28T06:41:12.579Z,96730.34
2022-09-28T06:42:15.518Z,96734.34
2022-09-28T06:43:17.314Z,96745.13
2022-09-28T06:44:19.184Z,96738.00
2022-09-28T06:45:25.205Z,96744.34
2022-09-28T06:46:27.170Z,96743.28
2022-09-28T06:47:28.942Z,96746.19
2022-09-28T06:48:31.654Z,96743.28
2022-09-28T06:49:33.398Z,96744.34
2022-09-28T06:50:39.529Z,96746.97
2022-09-28T06:51:41.269Z,96754.69
2022-09-28T06:52:43.013Z,96745.13
2022-09-28T06:53:44.732Z,96750.19
2022-09-28T06:54:46.829Z,96759.97
2022-09-28T06:55:49.065Z,96751.22
2022-09-28T06:56:51.488Z,96746.75
2022-09-28T06:58:05.693Z,96743.66
2022-09-28T06:59:07.475Z,96757.06
2022-09-28T07:00:10.505Z,96754.22
2022-09-28T07:01:12.310Z,96755.56
2022-09-28T07:02:14.525Z,96758.19
2022-09-28T07:03:20.760Z,96752.91
2022-09-28T07:04:22.497Z,96762.69
2022-09-28T07:05:27.267Z,96762.69
2022-09-28T07:06:31.405Z,96766.13
2022-09-28T07:07:33.193Z,96760.84
2022-09-28T07:08:34.922Z,96769.56
2022-09-28T07:09:42.228Z,96763.22
2022-09-28T07:10:49.613Z,96771.94
2022-09-28T07:11:52.588Z,96774.03
2022-09-28T07:12:56.785Z,96771.94
2022-09-28T07:13:58.498Z,96770.91
2022-09-28T07:15:00.297Z,96773.53
2022-09-28T07:16:02.214Z,96773.28
2022-09-28T07:17:13.606Z,96781.22
2022-09-28T07:18:17.761Z,96776.97
2022-09-28T07:19:19.537Z,96781.22
2022-09-28T07:20:21.322Z,96781.75
2022-09-28T07:21:29.802Z,96784.16
2022-09-28T07:22:42.329Z,96781.50
2022-09-28T07:23:52.695Z,96782.34
2022-09-28T07:24:57.520Z,96789.44
2022-09-28T07:26:07.406Z,96783.94
2022-09-28T07:27:10.229Z,96793.72
2022-09-28T07:28:12.137Z,96792.91
2022-09-28T07:29:13.839Z,96797.94
2022-09-28T07:30:16.288Z,96797.69
2022-09-28T07:31:18.095Z,96799.53
2022-09-28T07:32:21.893Z,96798.25
2022-09-28T07:33:29.321Z,96807.22
2022-09-28T07:34:31.081Z,96813.06
2022-09-28T07:35:36.391Z,96807.75
2022-09-28T07:36:39.093Z,96806.72
2022-09-28T07:37:40.918Z,96813.84
2022-09-28T07:38:43.920Z,96807.25
2022-09-28T07:40:04.961Z,96810.69
2022-09-28T07:41:13.872Z,96807.25
2022-09-28T07:42:16.025Z,96818.41
2022-09-28T07:43:20.675Z,96822.66
2022-09-28T07:44:22.552Z,96822.66
2022-09-28T07:45:24.420Z,96820.56
2022-09-28T07:46:26.235Z,96836.16
2022-09-28T07:47:33.911Z,96823.75
2022-09-28T07:48:37.745Z,96825.34
2022-09-28T07:49:39.513Z,96823.81
2022-09-28T07:50:41.694Z,96832.28
2022-09-28T07:51:44.708Z,96834.44
2022-09-28T07:52:46.528Z,96838.13
2022-09-28T07:53:48.283Z,96832.59
2022-09-28T07:54:52.084Z,96837.63
2022-09-28T07:55:56.708Z,96835.78
2022-09-28T07:56:58.511Z,96837.13
2022-09-28T07:58:01.552Z,96843.47
2022-09-28T07:59:03.281Z,96835.53
2022-09-28T08:00:08.828Z,96840.56
2022-09-28T08:01:14.855Z,96836.09
2022-09-28T08:02:20.525Z,96834.25
2022-09-28T08:03:22.515Z,96844.34
2022-09-28T08:04:25.256Z,96853.31
2022-09-28T08:05:31.155Z,96836.41
2022-09-28T08:06:32.902Z,96842.22
2022-09-28T08:07:34.715Z,96847.81
2022-09-28T08:08:36.672Z,96847.28
2022-09-28T08:09:38.699Z,96849.91
2022-09-28T08:10:46.805Z,96854.69
2022-09-28T08:11:49.735Z,96855.53
2022-09-28T08:13:03.625Z,96851.56
2022-09-28T08:14:06.348Z,96858.72
2022-09-28T08:15:10.315Z,96863.50
2022-09-28T08:16:12.275Z,96860.84
2022-09-28T08:17:15.552Z,96860.34
2022-09-28T08:18:18.129Z,96866.75
2022-09-28T08:19:19.854Z,96860.69
2022-09-28T08:20:40.227Z,96862.81
2022-09-28T08:21:44.811Z,96855.44
2022-09-28T08:22:46.567Z,96855.16
2022-09-28T08:23:48.605Z,96863.66
2022-09-28T08:24:50.517Z,96860.22
2022-09-28T08:25:54.126Z,96861.81
2022-09-28T08:26:57.105Z,96855.25
2022-09-28T08:28:00.054Z,96852.88
2022-09-28T08:29:01.903Z,96855.03
2022-09-28T08:30:04.158Z,96856.63
2022-09-28T08:31:07.281Z,96852.91
2022-09-28T08:32:10.491Z,96858.53
2022-09-28T08:33:13.506Z,96860.94
2022-09-28T08:34:15.235Z,96859.06
2022-09-28T08:35:17.527Z,96863.31
2022-09-28T08:36:20.570Z,96860.41
2022-09-28T08:37:22.519Z,96861.22
2022-09-28T08:38:26.858Z,96862.59
2022-09-28T08:39:28.732Z,96863.13
2022-09-28T08:40:37.912Z,96870.00
2022-09-28T08:41:50.470Z,96864.47
2022-09-28T08:43:04.255Z,96865.84
2022-09-28T08:44:06.133Z,96869.50
2022-09-28T08:45:23.265Z,96869.03
2022-09-28T08:46:33.608Z,96868.22
2022-09-28T08:48:14.517Z,96872.25
2022-09-28T08:49:34.716Z,96870.13
2022-09-28T08:50:51.007Z,96879.13
2022-09-28T08:52:16.256Z,96878.06
2022-09-28T08:53:45.873Z,96879.69
2022-09-28T08:54:56.160Z,96882.56
2022-09-28T08:56:02.460Z,96880.97
2022-09-28T08:57:15.677Z,96889.72
2022-09-28T08:58:33.553Z,96886.56
2022-09-28T08:59:54.261Z,96883.13
2022-09-28T09:00:56.189Z,96889.16
2022-09-28T09:02:09.727Z,96892.59
2022-09-28T09:03:25.794Z,96893.41
2022-09-28T09:04:27.735Z,96893.91
2022-09-28T09:05:49.387Z,96902.38
2022-09-28T09:07:21.431Z,96895.00
2022-09-28T09:08:49.984Z,96900.31
2022-09-28T09:10:50.649Z,96895.31
2022-09-28T09:12:34.791Z,96889.47
2022-09-28T09:14:43.198Z,96896.09
2022-09-28T09:16:20.360Z,96896.09
2022-09-28T09:18:08.771Z,96896.34
2022-09-28T09:19:45.688Z,96905.09
2022-09-28T09:20:57.340Z,96903.75
2022-09-28T09:22:16.745Z,96901.91
2022-09-28T09:23:45.068Z,96897.94
2022-09-28T09:25:00.891Z,96903.25
2022-09-28T09:26:26.591Z,96901.69
2022-09-28T09:27:32.244Z,96903.78
2022-09-28T09:29:07.606Z,96909.38
2022-09-28T09:30:19.172Z,96909.38
2022-09-28T09:32:06.345Z,96908.09
2022-09-28T09:33:49.766Z,96899.09
2022-09-28T09:35:12.491Z,96902.53
2022-09-28T09:36:23.305Z,96900.97
2022-09-28T09:38:00.055Z,96900.72
2022-09-28T09:39:51.250Z,96904.16
2022-09-28T09:41:38.122Z,96908.19
2022-09-28T09:43:28.002Z,96901.56
2022-09-28T09:45:12.307Z,96904.81
2022-09-28T09:46:29.453Z,96912.03
2022-09-28T09:47:39.856Z,96905.47
2022-09-28T09:48:59.208Z,96916.34
2022-09-28T09:50:12.074Z,96908.13
2022-09-28T09:51:27.281Z,96913.44
2022-09-28T09:52:52.459Z,96914.31
2022-09-28T09:54:31.437Z,96916.56
2022-09-28T09:55:43.703Z,96920.63
2022-09-28T09:57:15.806Z,96923.44
2022-09-28T09:58:26.384Z,96914.72
2022-09-28T09:59:36.770Z,96916.94
2022-09-28T10:00:47.163Z,96920.41
2022-09-28T10:01:50.154Z,96923.63
2022-09-28T10:02:53.482Z,96922.09
2022-09-28T10:03:58.857Z,96923.19
2022-09-28T10:05:25.473Z,96925.41
2022-09-28T10:06:34.576Z,96924.88
2022-09-28T10:08:16.232Z,96920.66
2022-09-28T10:09:27.852Z,96926.22
2022-09-28T10:10:49.029Z,96925.19
2022-09-28T10:11:52.132Z,96927.56
2022-09-28T10:12:54.627Z,96923.59
2022-09-28T10:13:57.746Z,96929.69
2022-09-28T10:15:03.016Z,96931.03
2022-09-28T10:16:07.356Z,96931.56
2022-09-28T10:17:16.373Z,96929.16
2022-09-28T10:18:21.366Z,96923.84
2022-09-28T10:19:33.256Z,96926.53
2022-09-28T10:20:39.943Z,96922.28
2022-09-28T10:21:42.304Z,96926.25
2022-09-28T10:22:44.557Z,96927.31
2022-09-28T10:23:50.118Z,96924.06
2022-09-28T10:24:57.444Z,96919.81
2022-09-28T10:26:25.587Z,96921.81
2022-09-28T10:27:35.184Z,96920.44
2022-09-28T10:28:50.517Z,96925.16
2022-09-28T10:30:02.347Z,96922.38
2022-09-28T10:31:44.631Z,96920.03
2022-09-28T10:32:50.025Z,96922.41
2022-09-28T10:33:53.727Z,96917.53
2022-09-28T10:35:18.567Z,96921.03
2022-09-28T10:36:20.287Z,96913.81
2022-09-28T10:37:22.893Z,96921.75
2022-09-28T10:38:24.840Z,96924.38
2022-09-28T10:39:47.535Z,96916.00
2022-09-28T10:41:09.385Z,96920.25
2022-09-28T10:42:28.065Z,96917.91
2022-09-28T10:43:36.885Z,96918.50
2022-09-28T10:45:25.046Z,96921.72
2022-09-28T10:46:27.256Z,96919.03
2022-09-28T10:47:32.650Z,96925.44
2022-09-28T10:48:58.375Z,96915.19
2022-09-28T10:50:00.965Z,96911.38
2022-09-28T10:51:08.782Z,96920.66
2022-09-28T10:52:36.258Z,96922.38
2022-09-28T10:53:39.859Z,96921.53
2022-09-28T10:54:53.529Z,96917.19
2022-09-28T10:56:19.618Z,96912.03
2022-09-28T10:57:39.786Z,96924.50
2022-09-28T10:58:42.769Z,96923.13
2022-09-28T10:59:46.608Z,96930.09
2022-09-28T11:00:50.118Z,96924.97
2022-09-28T11:02:24.504Z,96921.22
2022-09-28T11:03:29.640Z,96927.34
2022-09-28T11:04:41.765Z,96914.78
2022-09-28T11:06:05.322Z,96917.69
2022-09-28T11:07:20.145Z,96927.00
2022-09-28T11:08:41.602Z,96927.50
2022-09-28T11:09:49.078Z,96929.91
2022-09-28T11:11:06.914Z,96919.50
2022-09-28T11:12:18.348Z,96926.72
2022-09-28T11:13:20.084Z,96923.81
2022-09-28T11:14:39.587Z,96920.34
2022-09-28T11:15:44.408Z,96922.31
2022-09-28T11:16:46.203Z,96924.75
2022-09-28T11:17:48.268Z,96915.72
2022-09-28T11:18:50.162Z,96925.88
2022-09-28T11:19:53.699Z,96919.81
2022-09-28T11:21:12.823Z,96916.41
2022-09-28T11:22:38.000Z,96917.03
2022-09-28T11:23:41.963Z,96916.56
2022-09-28T11:24:43.669Z,96920.34
2022-09-28T11:26:06.665Z,96918.81
2022-09-28T11:27:22.543Z,96917.56
2022-09-28T11:28:32.714Z,96921.63
2022-09-28T11:29:46.056Z,96918.97
2022-09-28T11:30:54.490Z,96919.84
2022-09-28T11:32:03.209Z,96918.00
2022-09-28T11:33:35.678Z,96913.75
2022-09-28T11:34:59.102Z,96916.47
2022-09-28T11:36:14.061Z,96905.56
2022-09-28T11:37:32.430Z,96919.97
2022-09-28T11:38:44.043Z,96917.06
2022-09-28T11:40:38.328Z,96914.19
2022-09-28T11:41:54.976Z,96916.94
2022-09-28T11:43:31.841Z,96911.13
2022-09-28T11:44:44.802Z,96920.47
2022-09-28T11:46:08.461Z,96914.63
2022-09-28T11:47:52.754Z,96916.00
2022-09-28T11:49:37.795Z,96927.53
2022-09-28T11:51:03.985Z,96914.22
2022-09-28T11:52:24.523Z,96917.44
2022-09-28T11:53:42.264Z,96908.44
2022-09-28T11:55:26.707Z,96914.56
2022-09-28T11:56:39.672Z,96910.31
2022-09-28T11:57:48.715Z,96914.38
2022-09-28T11:58:58.476Z,96912.50
2022-09-28T12:00:15.667Z,96908.78
2022-09-28T12:01:42.958Z,96917.56
2022-09-28T12:03:05.111Z,96907.47
2022-09-28T12:04:14.788Z,96916.00
2022-09-28T12:05:37.199Z,96907.72
2022-09-28T12:06:49.631Z,96910.94
2022-09-28T12:08:07.594Z,96909.34
2022-09-28T12:09:50.022Z,96908.00
2022-09-28T12:11:19.310Z,96906.16
2022-09-28T12:12:45.521Z,96904.59
2022-09-28T12:13:51.442Z,96911.00
2022-09-28T12:15:02.927Z,96907.03
2022-09-28T12:18:12.976Z,96905.16
2022-09-28T12:19:32.206Z,96911.84
2022-09-28T12:20:44.785Z,96908.16
2022-09-28T12:21:55.074Z,96906.06
2022-09-28T12:23:08.150Z,96916.94
2022-09-28T12:24:34.769Z,96905.78
2022-09-28T12:25:52.103Z,96913.25
2022-09-28T12:27:01.764Z,96905.81
2022-09-28T12:28:16.248Z,96903.69
2022-09-28T12:29:32.723Z,96903.94
2022-09-28T12:30:40.651Z,96903.41
2022-09-28T12:32:38.229Z,96900.47
2022-09-28T12:33:44.182Z,96901.59
2022-09-28T12:34:45.956Z,96906.63
2022-09-28T12:36:06.077Z,96907.69
2022-09-28T12:37:34.010Z,96901.88
2022-09-28T12:39:31.008Z,96900.78
2022-09-28T12:41:01.835Z,96910.66
2022-09-28T12:42:36.818Z,96909.06
2022-09-28T12:44:18.624Z,96908.25
2022-09-28T12:45:42.982Z,96911.16
2022-09-28T12:47:23.548Z,96899.44
2022-09-28T12:48:26.022Z,96904.00
2022-09-28T12:51:43.788Z,96908.22
2022-09-28T12:53:39.610Z,96901.81
2022-09-28T12:55:31.165Z,96901.56
2022-09-28T12:56:52.020Z,96907.69
2022-09-28T12:58:19.038Z,96908.75
2022-09-28T12:59:42.233Z,96905.78
2022-09-28T13:01:31.531Z,96909.75
2022-09-28T13:03:07.117Z,96898.53
2022-09-28T13:04:35.755Z,96907.59
2022-09-28T13:06:12.773Z,96904.59
2022-09-28T13:07:42.791Z,96905.38
2022-09-28T13:09:15.610Z,96904.59
2022-09-28T13:10:46.618Z,96898.69
2022-09-28T13:11:54.755Z,96904.59
2022-09-28T13:13:26.365Z,96899.22
2022-09-28T13:14:51.257Z,96905.91
2022-09-28T13:16:30.760Z,96899.72
2022-09-28T13:17:52.503Z,96900.78
2022-09-28T13:19:13.065Z,96903.97
2022-09-28T13:20:37.454Z,96918.63
2022-09-28T13:21:57.732Z,96913.84
2022-09-28T13:23:19.727Z,96911.72
2022-09-28T13:24:32.673Z,96911.19
2022-09-28T13:25:43.452Z,96910.38
2022-09-28T13:26:47.844Z,96907.75
2022-09-28T13:28:03.750Z,96902.94
2022-09-28T13:29:17.605Z,96899.50
2022-09-28T13:30:19.499Z,96904.31
2022-09-28T13:31:31.813Z,96905.38
2022-09-28T13:32:38.849Z,96908.56
2022-09-28T13:33:45.644Z,96908.56
2022-09-28T13:34:50.424Z,96905.66
2022-09-28T13:35:52.157Z,96909.41
2022-09-28T13:37:21.758Z,96913.16
2022-09-28T13:38:23.437Z,96911.84
2022-09-28T13:39:37.560Z,96912.41
2022-09-28T13:41:03.926Z,96923.34
2022-09-28T13:42:09.159Z,96923.38
2022-09-28T13:43:34.192Z,96928.72
2022-09-28T13:45:26.486Z,96925.53
2022-09-28T13:46:46.459Z,96925.25
2022-09-28T13:47:51.568Z,96928.47
2022-09-28T13:49:14.435Z,96922.09
2022-09-28T13:50:48.212Z,96920.25
2022-09-28T13:52:06.903Z,96921.34
2022-09-28T13:53:41.897Z,96924.81
2022-09-28T13:55:23.613Z,96925.09